MET'MAP v2.0
soon released !

Expected late october,
this new version will be
more efficient, smarter,
and hosted on a brand new
server x3 powerfull...
...and still free !


Not compatible ?
Try the mobile version !

LOG IN : | Subscribe | Disclaimer | Who is Orbifly ? |
ICAO code :

TAF - LIRL Latina Casale (military) - 13 Dec 2019 09:18 UTC
Data Sources :     NOAA   


- Airport Elevation : 94 ft
- IATA code : QLT
- No reported NOTAMs.


LIRL - Latina Casale (military)

Latest METAR recorded : 2015/08/11 07:55 LIRL 110755Z 20004KT 9999 FEW020TCU SCT080 23/21 Q1010
TAF TAF LIRL
Valid from the 13 at 07:00 until the 13 at 15:00 UTC


130600Z 1307/1315 12010KT 8000 RA SCT020 SCT040
TEMPO 1307/1310 4000 SHRA BR BKN015
TEMPO 1310/1315 5000 TSRA FEW020CB BKN030

Source NOAA


MET'MAP, your aeronautical weather chart ! - Copyright ORBIFLY December 2007

Programming & Development : Alexandra Zaïnal
Co-Developer : Marc-Olivier Méhu
Technical & hardware support : Manuel Goepfert
Concept & Financing : Baudouin d'Aumeries